Terminal Aerodrome Forecast
Issued by NWS Sterling, VA

Current Version | Previous Version | Graphics & Text | Print | Product List | Glossary On
Versions: 1 2 3 4 5 6 7 8 9 10 11 12 13 14 15 16 17 18 19 20 21 22 23 24 25 26 27 28
000
FTUS41 KLWX 032320
TAFDCA
TAF
KDCA 032320Z 0400/0424 13006KT 5SM -SHRA OVC050
     FM040600 10005KT 5SM -SHRA BR OVC015
     FM040900 07007KT 5SM -SHRA BR BKN008 OVC015
     FM041400 01006KT 5SM -SHRA OVC015
     FM041800 04007KT P6SM BKN025
     FM042100 02006KT P6SM BKN050=

USA.gov is the U.S. government's official web portal to all federal, state and local government web resources and services.